sensor_id;sensor_type;location;lat;lon;timestamp;P1;durP1;ratioP1;P2;durP2;ratioP2
73454;SDS011;61690;51.824;6.306;2023-01-28T00:01:21;5.03;;;2.43;;
73454;SDS011;61690;51.824;6.306;2023-01-28T00:03:49;5.10;;;2.53;;
73454;SDS011;61690;51.824;6.306;2023-01-28T00:06:16;4.50;;;2.53;;
73454;SDS011;61690;51.824;6.306;2023-01-28T00:08:43;4.93;;;2.50;;
73454;SDS011;61690;51.824;6.306;2023-01-28T00:11:09;5.68;;;2.22;;
73454;SDS011;61690;51.824;6.306;2023-01-28T00:13:36;4.85;;;2.40;;
73454;SDS011;61690;51.824;6.306;2023-01-28T00:16:03;4.50;;;2.47;;
73454;SDS011;61690;51.824;6.306;2023-01-28T00:18:31;4.40;;;2.30;;
73454;SDS011;61690;51.824;6.306;2023-01-28T00:20:58;5.20;;;2.50;;
73454;SDS011;61690;51.824;6.306;2023-01-28T00:23:29;4.87;;;2.23;;
73454;SDS011;61690;51.824;6.306;2023-01-28T00:25:57;4.78;;;2.47;;
73454;SDS011;61690;51.824;6.306;2023-01-28T00:28:24;4.88;;;2.40;;
73454;SDS011;61690;51.824;6.306;2023-01-28T00:30:49;5.20;;;2.43;;
73454;SDS011;61690;51.824;6.306;2023-01-28T00:33:14;4.40;;;2.30;;
73454;SDS011;61690;51.824;6.306;2023-01-28T00:35:40;4.70;;;2.60;;
73454;SDS011;61690;51.824;6.306;2023-01-28T00:38:05;4.30;;;2.10;;
73454;SDS011;61690;51.824;6.306;2023-01-28T00:40:31;4.50;;;2.07;;
73454;SDS011;61690;51.824;6.306;2023-01-28T00:42:56;5.13;;;2.50;;
73454;SDS011;61690;51.824;6.306;2023-01-28T00:45:22;4.33;;;2.60;;
73454;SDS011;61690;51.824;6.306;2023-01-28T00:47:47;4.63;;;2.33;;
73454;SDS011;61690;51.824;6.306;2023-01-28T00:50:13;5.20;;;2.73;;
73454;SDS011;61690;51.824;6.306;2023-01-28T00:52:38;5.45;;;2.30;;
73454;SDS011;61690;51.824;6.306;2023-01-28T00:55:04;4.33;;;2.53;;
73454;SDS011;61690;51.824;6.306;2023-01-28T00:57:30;5.03;;;2.55;;
73454;SDS011;61690;51.824;6.306;2023-01-28T00:59:55;4.43;;;2.60;;
73454;SDS011;61690;51.824;6.306;2023-01-28T01:02:20;5.70;;;2.47;;
73454;SDS011;61690;51.824;6.306;2023-01-28T01:04:46;4.70;;;2.50;;
73454;SDS011;61690;51.824;6.306;2023-01-28T01:07:22;5.40;;;2.50;;
73454;SDS011;61690;51.824;6.306;2023-01-28T01:09:56;4.88;;;2.60;;
73454;SDS011;61690;51.824;6.306;2023-01-28T01:12:23;4.50;;;2.35;;
73454;SDS011;61690;51.824;6.306;2023-01-28T01:14:49;5.40;;;2.43;;
73454;SDS011;61690;51.824;6.306;2023-01-28T01:17:14;4.37;;;2.43;;
73454;SDS011;61690;51.824;6.306;2023-01-28T01:19:39;4.40;;;2.23;;
73454;SDS011;61690;51.824;6.306;2023-01-28T01:22:05;4.80;;;2.70;;
73454;SDS011;61690;51.824;6.306;2023-01-28T01:24:30;4.47;;;2.53;;
73454;SDS011;61690;51.824;6.306;2023-01-28T01:26:57;5.28;;;2.55;;
73454;SDS011;61690;51.824;6.306;2023-01-28T01:29:23;5.00;;;2.30;;
73454;SDS011;61690;51.824;6.306;2023-01-28T01:31:48;5.27;;;2.60;;
73454;SDS011;61690;51.824;6.306;2023-01-28T01:34:14;4.73;;;2.60;;
73454;SDS011;61690;51.824;6.306;2023-01-28T01:36:39;4.60;;;2.40;;
73454;SDS011;61690;51.824;6.306;2023-01-28T01:39:04;4.60;;;2.43;;
73454;SDS011;61690;51.824;6.306;2023-01-28T01:41:30;4.73;;;2.30;;
73454;SDS011;61690;51.824;6.306;2023-01-28T01:44:05;4.55;;;2.40;;
73454;SDS011;61690;51.824;6.306;2023-01-28T01:48:57;5.70;;;2.70;;
73454;SDS011;61690;51.824;6.306;2023-01-28T01:51:43;4.80;;;2.60;;
73454;SDS011;61690;51.824;6.306;2023-01-28T01:54:11;4.70;;;2.50;;
73454;SDS011;61690;51.824;6.306;2023-01-28T01:56:39;4.35;;;2.35;;
73454;SDS011;61690;51.824;6.306;2023-01-28T01:59:08;5.60;;;2.60;;
73454;SDS011;61690;51.824;6.306;2023-01-28T02:01:37;4.90;;;2.40;;
73454;SDS011;61690;51.824;6.306;2023-01-28T02:04:08;4.50;;;2.53;;
73454;SDS011;61690;51.824;6.306;2023-01-28T02:06:36;4.20;;;2.30;;
73454;SDS011;61690;51.824;6.306;2023-01-28T02:09:06;4.50;;;2.45;;
73454;SDS011;61690;51.824;6.306;2023-01-28T02:11:45;4.10;;;2.40;;
73454;SDS011;61690;51.824;6.306;2023-01-28T02:14:11;4.20;;;2.40;;
73454;SDS011;61690;51.824;6.306;2023-01-28T02:16:36;5.07;;;2.47;;
73454;SDS011;61690;51.824;6.306;2023-01-28T02:19:01;5.10;;;2.60;;
73454;SDS011;61690;51.824;6.306;2023-01-28T02:32:01;4.77;;;2.20;;
73454;SDS011;61690;51.824;6.306;2023-01-28T02:34:44;4.20;;;2.40;;
73454;SDS011;61690;51.824;6.306;2023-01-28T02:37:16;4.72;;;2.33;;
73454;SDS011;61690;51.824;6.306;2023-01-28T02:40:00;4.25;;;2.22;;
73454;SDS011;61690;51.824;6.306;2023-01-28T02:42:33;5.55;;;2.40;;
73454;SDS011;61690;51.824;6.306;2023-01-28T02:45:01;4.40;;;2.10;;
73454;SDS011;61690;51.824;6.306;2023-01-28T02:47:27;4.93;;;2.45;;
73454;SDS011;61690;51.824;6.306;2023-01-28T02:50:11;4.32;;;2.55;;
73454;SDS011;61690;51.824;6.306;2023-01-28T02:55:42;4.57;;;2.40;;
73454;SDS011;61690;51.824;6.306;2023-01-28T03:03:43;4.28;;;2.40;;
73454;SDS011;61690;51.824;6.306;2023-01-28T03:06:19;5.03;;;2.35;;
73454;SDS011;61690;51.824;6.306;2023-01-28T03:08:53;5.10;;;2.20;;
73454;SDS011;61690;51.824;6.306;2023-01-28T03:11:42;4.47;;;2.20;;
73454;SDS011;61690;51.824;6.306;2023-01-28T03:14:30;4.45;;;2.40;;
73454;SDS011;61690;51.824;6.306;2023-01-28T03:17:21;5.85;;;2.20;;
73454;SDS011;61690;51.824;6.306;2023-01-28T03:20:10;4.63;;;2.40;;
73454;SDS011;61690;51.824;6.306;2023-01-28T03:22:55;4.20;;;2.20;;
73454;SDS011;61690;51.824;6.306;2023-01-28T03:25:44;4.13;;;2.30;;
73454;SDS011;61690;51.824;6.306;2023-01-28T03:28:30;4.82;;;2.20;;
73454;SDS011;61690;51.824;6.306;2023-01-28T03:31:19;4.60;;;2.10;;
73454;SDS011;61690;51.824;6.306;2023-01-28T03:34:05;5.30;;;2.58;;
73454;SDS011;61690;51.824;6.306;2023-01-28T03:36:52;4.53;;;2.10;;
73454;SDS011;61690;51.824;6.306;2023-01-28T03:39:25;4.70;;;2.67;;
73454;SDS011;61690;51.824;6.306;2023-01-28T03:42:05;4.53;;;2.50;;
73454;SDS011;61690;51.824;6.306;2023-01-28T03:44:33;4.93;;;2.30;;
73454;SDS011;61690;51.824;6.306;2023-01-28T03:47:17;4.40;;;2.45;;
73454;SDS011;61690;51.824;6.306;2023-01-28T03:49:45;4.85;;;2.40;;
73454;SDS011;61690;51.824;6.306;2023-01-28T03:52:25;4.80;;;2.60;;
73454;SDS011;61690;51.824;6.306;2023-01-28T03:54:52;5.13;;;2.55;;
73454;SDS011;61690;51.824;6.306;2023-01-28T03:57:19;4.20;;;2.40;;
73454;SDS011;61690;51.824;6.306;2023-01-28T03:59:47;5.00;;;2.28;;
73454;SDS011;61690;51.824;6.306;2023-01-28T04:02:14;4.20;;;2.22;;
73454;SDS011;61690;51.824;6.306;2023-01-28T04:04:40;4.70;;;2.45;;
73454;SDS011;61690;51.824;6.306;2023-01-28T04:07:06;4.30;;;2.30;;
73454;SDS011;61690;51.824;6.306;2023-01-28T04:09:34;4.72;;;2.03;;
73454;SDS011;61690;51.824;6.306;2023-01-28T04:12:00;4.20;;;2.20;;
73454;SDS011;61690;51.824;6.306;2023-01-28T04:14:26;5.33;;;2.23;;
73454;SDS011;61690;51.824;6.306;2023-01-28T04:16:51;4.53;;;2.03;;
73454;SDS011;61690;51.824;6.306;2023-01-28T04:19:19;4.82;;;2.20;;
73454;SDS011;61690;51.824;6.306;2023-01-28T04:21:44;4.10;;;2.20;;
73454;SDS011;61690;51.824;6.306;2023-01-28T04:24:10;4.17;;;2.10;;
73454;SDS011;61690;51.824;6.306;2023-01-28T04:26:35;5.37;;;2.40;;
73454;SDS011;61690;51.824;6.306;2023-01-28T04:29:00;4.03;;;2.30;;
73454;SDS011;61690;51.824;6.306;2023-01-28T04:31:26;4.40;;;2.20;;
73454;SDS011;61690;51.824;6.306;2023-01-28T04:33:51;4.07;;;2.30;;
73454;SDS011;61690;51.824;6.306;2023-01-28T04:36:17;4.77;;;2.40;;
73454;SDS011;61690;51.824;6.306;2023-01-28T04:38:42;4.47;;;2.50;;
73454;SDS011;61690;51.824;6.306;2023-01-28T04:41:08;4.22;;;2.22;;
73454;SDS011;61690;51.824;6.306;2023-01-28T04:43:33;4.57;;;2.10;;
73454;SDS011;61690;51.824;6.306;2023-01-28T04:45:58;3.90;;;2.20;;
73454;SDS011;61690;51.824;6.306;2023-01-28T04:48:24;3.93;;;2.20;;
73454;SDS011;61690;51.824;6.306;2023-01-28T04:50:49;4.47;;;2.20;;
73454;SDS011;61690;51.824;6.306;2023-01-28T04:53:15;4.35;;;2.30;;
73454;SDS011;61690;51.824;6.306;2023-01-28T04:55:40;4.13;;;2.40;;
73454;SDS011;61690;51.824;6.306;2023-01-28T04:58:05;4.60;;;2.07;;
73454;SDS011;61690;51.824;6.306;2023-01-28T05:00:31;4.10;;;2.23;;
73454;SDS011;61690;51.824;6.306;2023-01-28T05:02:56;4.03;;;2.20;;
73454;SDS011;61690;51.824;6.306;2023-01-28T05:05:21;4.40;;;2.30;;
73454;SDS011;61690;51.824;6.306;2023-01-28T05:07:51;4.87;;;2.40;;
73454;SDS011;61690;51.824;6.306;2023-01-28T05:10:17;4.15;;;2.10;;
73454;SDS011;61690;51.824;6.306;2023-01-28T05:12:44;4.30;;;2.07;;
73454;SDS011;61690;51.824;6.306;2023-01-28T05:15:09;4.20;;;2.00;;
73454;SDS011;61690;51.824;6.306;2023-01-28T05:17:35;3.90;;;2.10;;
73454;SDS011;61690;51.824;6.306;2023-01-28T05:20:00;4.33;;;1.90;;
73454;SDS011;61690;51.824;6.306;2023-01-28T05:22:25;4.10;;;2.20;;
73454;SDS011;61690;51.824;6.306;2023-01-28T05:24:51;4.63;;;2.23;;
73454;SDS011;61690;51.824;6.306;2023-01-28T05:27:16;4.00;;;1.70;;
73454;SDS011;61690;51.824;6.306;2023-01-28T05:29:41;4.00;;;1.83;;
73454;SDS011;61690;51.824;6.306;2023-01-28T05:32:07;3.97;;;2.00;;
73454;SDS011;61690;51.824;6.306;2023-01-28T05:34:32;4.50;;;2.40;;
73454;SDS011;61690;51.824;6.306;2023-01-28T05:36:57;3.87;;;1.77;;
73454;SDS011;61690;51.824;6.306;2023-01-28T05:39:23;3.80;;;1.90;;
73454;SDS011;61690;51.824;6.306;2023-01-28T05:41:48;3.80;;;1.97;;
73454;SDS011;61690;51.824;6.306;2023-01-28T05:44:13;4.37;;;2.20;;
73454;SDS011;61690;51.824;6.306;2023-01-28T05:46:39;4.03;;;2.23;;
73454;SDS011;61690;51.824;6.306;2023-01-28T05:49:09;4.30;;;2.20;;
73454;SDS011;61690;51.824;6.306;2023-01-28T05:51:37;4.20;;;2.25;;
73454;SDS011;61690;51.824;6.306;2023-01-28T05:54:03;4.10;;;2.28;;
73454;SDS011;61690;51.824;6.306;2023-01-28T05:56:29;4.17;;;2.03;;
73454;SDS011;61690;51.824;6.306;2023-01-28T05:58:54;5.67;;;2.00;;
73454;SDS011;61690;51.824;6.306;2023-01-28T06:01:19;4.50;;;2.23;;
73454;SDS011;61690;51.824;6.306;2023-01-28T06:03:45;4.90;;;2.47;;
73454;SDS011;61690;51.824;6.306;2023-01-28T06:06:10;3.93;;;2.00;;
73454;SDS011;61690;51.824;6.306;2023-01-28T06:08:35;5.07;;;2.20;;
73454;SDS011;61690;51.824;6.306;2023-01-28T06:11:01;4.80;;;2.10;;
73454;SDS011;61690;51.824;6.306;2023-01-28T06:13:26;4.10;;;2.20;;
73454;SDS011;61690;51.824;6.306;2023-01-28T06:15:52;4.50;;;2.20;;
73454;SDS011;61690;51.824;6.306;2023-01-28T06:18:17;3.90;;;2.00;;
73454;SDS011;61690;51.824;6.306;2023-01-28T06:20:42;3.97;;;2.10;;
73454;SDS011;61690;51.824;6.306;2023-01-28T06:23:08;4.50;;;2.30;;
73454;SDS011;61690;51.824;6.306;2023-01-28T06:25:33;4.43;;;2.13;;
73454;SDS011;61690;51.824;6.306;2023-01-28T06:27:59;3.80;;;1.80;;
73454;SDS011;61690;51.824;6.306;2023-01-28T06:30:24;3.90;;;2.00;;
73454;SDS011;61690;51.824;6.306;2023-01-28T06:32:53;4.30;;;2.10;;
73454;SDS011;61690;51.824;6.306;2023-01-28T06:35:19;4.20;;;2.10;;
73454;SDS011;61690;51.824;6.306;2023-01-28T06:37:45;4.37;;;2.17;;
73454;SDS011;61690;51.824;6.306;2023-01-28T06:40:10;4.40;;;2.10;;
73454;SDS011;61690;51.824;6.306;2023-01-28T06:42:36;4.88;;;1.90;;
73454;SDS011;61690;51.824;6.306;2023-01-28T06:45:01;4.43;;;1.90;;
73454;SDS011;61690;51.824;6.306;2023-01-28T06:47:27;4.80;;;1.77;;
73454;SDS011;61690;51.824;6.306;2023-01-28T06:49:52;5.37;;;1.83;;
73454;SDS011;61690;51.824;6.306;2023-01-28T06:52:17;5.57;;;1.93;;
73454;SDS011;61690;51.824;6.306;2023-01-28T06:54:42;4.47;;;1.90;;
73454;SDS011;61690;51.824;6.306;2023-01-28T06:57:08;4.47;;;1.90;;
73454;SDS011;61690;51.824;6.306;2023-01-28T06:59:33;4.10;;;1.70;;
73454;SDS011;61690;51.824;6.306;2023-01-28T07:01:59;3.87;;;1.80;;
73454;SDS011;61690;51.824;6.306;2023-01-28T07:04:24;4.20;;;2.00;;
73454;SDS011;61690;51.824;6.306;2023-01-28T07:06:50;5.90;;;1.80;;
73454;SDS011;61690;51.824;6.306;2023-01-28T07:09:15;4.10;;;1.80;;
73454;SDS011;61690;51.824;6.306;2023-01-28T07:11:40;3.63;;;1.73;;
73454;SDS011;61690;51.824;6.306;2023-01-28T07:14:05;3.70;;;1.63;;
73454;SDS011;61690;51.824;6.306;2023-01-28T07:16:31;3.80;;;1.77;;
73454;SDS011;61690;51.824;6.306;2023-01-28T07:18:56;4.00;;;1.70;;
73454;SDS011;61690;51.824;6.306;2023-01-28T07:21:22;3.80;;;1.73;;
73454;SDS011;61690;51.824;6.306;2023-01-28T07:23:47;4.00;;;1.50;;
73454;SDS011;61690;51.824;6.306;2023-01-28T07:26:12;3.83;;;1.70;;
73454;SDS011;61690;51.824;6.306;2023-01-28T07:28:39;3.60;;;1.70;;
73454;SDS011;61690;51.824;6.306;2023-01-28T07:31:04;4.28;;;1.80;;
73454;SDS011;61690;51.824;6.306;2023-01-28T07:33:30;4.17;;;1.60;;
73454;SDS011;61690;51.824;6.306;2023-01-28T07:35:55;4.10;;;1.90;;
73454;SDS011;61690;51.824;6.306;2023-01-28T07:38:20;5.03;;;1.70;;
73454;SDS011;61690;51.824;6.306;2023-01-28T07:40:46;4.30;;;1.80;;
73454;SDS011;61690;51.824;6.306;2023-01-28T07:43:11;3.80;;;1.83;;
73454;SDS011;61690;51.824;6.306;2023-01-28T07:45:37;4.23;;;1.70;;
73454;SDS011;61690;51.824;6.306;2023-01-28T07:48:04;3.77;;;1.80;;
73454;SDS011;61690;51.824;6.306;2023-01-28T07:50:31;4.18;;;1.90;;
73454;SDS011;61690;51.824;6.306;2023-01-28T07:53:01;3.80;;;1.77;;
73454;SDS011;61690;51.824;6.306;2023-01-28T07:55:27;3.88;;;1.70;;
73454;SDS011;61690;51.824;6.306;2023-01-28T07:57:53;3.80;;;1.67;;
73454;SDS011;61690;51.824;6.306;2023-01-28T08:00:20;4.82;;;1.90;;
73454;SDS011;61690;51.824;6.306;2023-01-28T08:02:47;3.85;;;1.65;;
73454;SDS011;61690;51.824;6.306;2023-01-28T08:05:14;4.13;;;1.80;;
73454;SDS011;61690;51.824;6.306;2023-01-28T08:07:44;4.00;;;1.70;;
73454;SDS011;61690;51.824;6.306;2023-01-28T08:10:11;5.35;;;1.70;;
73454;SDS011;61690;51.824;6.306;2023-01-28T08:12:37;4.03;;;1.90;;
73454;SDS011;61690;51.824;6.306;2023-01-28T08:15:03;3.75;;;1.65;;
73454;SDS011;61690;51.824;6.306;2023-01-28T08:17:29;4.00;;;1.80;;
73454;SDS011;61690;51.824;6.306;2023-01-28T08:19:54;4.10;;;1.88;;
73454;SDS011;61690;51.824;6.306;2023-01-28T08:22:23;3.83;;;1.77;;
73454;SDS011;61690;51.824;6.306;2023-01-28T08:24:49;3.87;;;1.50;;
73454;SDS011;61690;51.824;6.306;2023-01-28T08:27:14;3.83;;;1.70;;
73454;SDS011;61690;51.824;6.306;2023-01-28T08:29:39;3.90;;;1.70;;
73454;SDS011;61690;51.824;6.306;2023-01-28T08:32:05;3.43;;;1.50;;
73454;SDS011;61690;51.824;6.306;2023-01-28T08:34:30;4.30;;;1.90;;
73454;SDS011;61690;51.824;6.306;2023-01-28T08:36:55;4.30;;;1.97;;
73454;SDS011;61690;51.824;6.306;2023-01-28T08:39:20;3.80;;;1.70;;
73454;SDS011;61690;51.824;6.306;2023-01-28T08:41:46;4.03;;;1.73;;
73454;SDS011;61690;51.824;6.306;2023-01-28T08:44:11;3.97;;;1.80;;
73454;SDS011;61690;51.824;6.306;2023-01-28T08:46:36;3.97;;;1.60;;
73454;SDS011;61690;51.824;6.306;2023-01-28T08:49:02;3.63;;;1.70;;
73454;SDS011;61690;51.824;6.306;2023-01-28T08:51:27;3.60;;;1.50;;
73454;SDS011;61690;51.824;6.306;2023-01-28T08:53:52;3.87;;;1.70;;
73454;SDS011;61690;51.824;6.306;2023-01-28T08:56:18;4.43;;;1.73;;
73454;SDS011;61690;51.824;6.306;2023-01-28T08:58:43;3.80;;;1.50;;
73454;SDS011;61690;51.824;6.306;2023-01-28T09:01:09;3.60;;;1.58;;
73454;SDS011;61690;51.824;6.306;2023-01-28T09:03:34;3.73;;;1.80;;
73454;SDS011;61690;51.824;6.306;2023-01-28T09:06:00;3.70;;;1.77;;
73454;SDS011;61690;51.824;6.306;2023-01-28T09:08:32;4.10;;;1.67;;
73454;SDS011;61690;51.824;6.306;2023-01-28T09:10:58;4.05;;;1.60;;
73454;SDS011;61690;51.824;6.306;2023-01-28T09:13:24;4.00;;;1.50;;
73454;SDS011;61690;51.824;6.306;2023-01-28T09:15:50;3.93;;;1.60;;
73454;SDS011;61690;51.824;6.306;2023-01-28T09:18:16;3.90;;;1.73;;
73454;SDS011;61690;51.824;6.306;2023-01-28T09:20:42;3.90;;;1.60;;
73454;SDS011;61690;51.824;6.306;2023-01-28T09:23:07;4.22;;;1.67;;
73454;SDS011;61690;51.824;6.306;2023-01-28T09:25:33;3.77;;;1.80;;
73454;SDS011;61690;51.824;6.306;2023-01-28T09:28:00;4.03;;;1.70;;
73454;SDS011;61690;51.824;6.306;2023-01-28T09:30:25;3.77;;;1.70;;
73454;SDS011;61690;51.824;6.306;2023-01-28T09:32:51;3.77;;;1.70;;
73454;SDS011;61690;51.824;6.306;2023-01-28T09:35:17;3.40;;;1.50;;
73454;SDS011;61690;51.824;6.306;2023-01-28T09:37:44;3.42;;;1.50;;
73454;SDS011;61690;51.824;6.306;2023-01-28T09:40:12;4.63;;;1.40;;
73454;SDS011;61690;51.824;6.306;2023-01-28T09:45:46;3.78;;;1.40;;
73454;SDS011;61690;51.824;6.306;2023-01-28T09:48:26;3.58;;;1.35;;
73454;SDS011;61690;51.824;6.306;2023-01-28T09:50:56;4.65;;;1.55;;
73454;SDS011;61690;51.824;6.306;2023-01-28T09:53:32;3.70;;;1.47;;
73454;SDS011;61690;51.824;6.306;2023-01-28T09:56:04;3.88;;;1.50;;
73454;SDS011;61690;51.824;6.306;2023-01-28T09:58:35;4.13;;;1.40;;
73454;SDS011;61690;51.824;6.306;2023-01-28T10:06:29;3.80;;;1.65;;
73454;SDS011;61690;51.824;6.306;2023-01-28T10:09:26;4.20;;;1.40;;
73454;SDS011;61690;51.824;6.306;2023-01-28T10:12:09;3.77;;;1.50;;
73454;SDS011;61690;51.824;6.306;2023-01-28T10:14:54;4.55;;;1.40;;
73454;SDS011;61690;51.824;6.306;2023-01-28T10:20:02;4.38;;;1.60;;
73454;SDS011;61690;51.824;6.306;2023-01-28T10:22:34;4.13;;;1.90;;
73454;SDS011;61690;51.824;6.306;2023-01-28T10:25:09;4.60;;;1.87;;
73454;SDS011;61690;51.824;6.306;2023-01-28T10:27:42;4.18;;;1.60;;
73454;SDS011;61690;51.824;6.306;2023-01-28T10:30:18;3.85;;;1.48;;
73454;SDS011;61690;51.824;6.306;2023-01-28T10:35:38;4.10;;;1.60;;
73454;SDS011;61690;51.824;6.306;2023-01-28T10:38:05;4.17;;;1.50;;
73454;SDS011;61690;51.824;6.306;2023-01-28T10:40:33;4.38;;;1.60;;
73454;SDS011;61690;51.824;6.306;2023-01-28T10:42:59;3.65;;;1.45;;
73454;SDS011;61690;51.824;6.306;2023-01-28T10:45:29;3.90;;;1.60;;
73454;SDS011;61690;51.824;6.306;2023-01-28T10:50:51;4.90;;;1.65;;
73454;SDS011;61690;51.824;6.306;2023-01-28T10:53:18;5.22;;;1.80;;
73454;SDS011;61690;51.824;6.306;2023-01-28T10:55:48;4.30;;;1.50;;
73454;SDS011;61690;51.824;6.306;2023-01-28T10:58:24;3.72;;;1.42;;
73454;SDS011;61690;51.824;6.306;2023-01-28T11:00:56;5.20;;;1.58;;
73454;SDS011;61690;51.824;6.306;2023-01-28T11:03:25;4.40;;;1.80;;
73454;SDS011;61690;51.824;6.306;2023-01-28T11:05:52;4.27;;;1.60;;
73454;SDS011;61690;51.824;6.306;2023-01-28T11:08:19;4.50;;;1.58;;
73454;SDS011;61690;51.824;6.306;2023-01-28T11:10:46;4.68;;;1.73;;
73454;SDS011;61690;51.824;6.306;2023-01-28T11:18:31;4.53;;;1.67;;
73454;SDS011;61690;51.824;6.306;2023-01-28T11:20:59;5.50;;;1.45;;
73454;SDS011;61690;51.824;6.306;2023-01-28T11:23:28;5.07;;;1.77;;
73454;SDS011;61690;51.824;6.306;2023-01-28T11:26:07;4.05;;;1.58;;
73454;SDS011;61690;51.824;6.306;2023-01-28T11:28:40;5.20;;;1.80;;
73454;SDS011;61690;51.824;6.306;2023-01-28T11:31:07;4.87;;;1.70;;
73454;SDS011;61690;51.824;6.306;2023-01-28T11:33:38;5.05;;;1.90;;
73454;SDS011;61690;51.824;6.306;2023-01-28T11:36:17;5.35;;;1.73;;
73454;SDS011;61690;51.824;6.306;2023-01-28T11:41:22;5.32;;;1.90;;
73454;SDS011;61690;51.824;6.306;2023-01-28T11:43:51;4.73;;;1.73;;
73454;SDS011;61690;51.824;6.306;2023-01-28T12:02:24;4.63;;;1.60;;
73454;SDS011;61690;51.824;6.306;2023-01-28T12:05:00;4.55;;;1.80;;
73454;SDS011;61690;51.824;6.306;2023-01-28T12:10:26;3.53;;;1.27;;
73454;SDS011;61690;51.824;6.306;2023-01-28T12:15:54;5.67;;;1.60;;
73454;SDS011;61690;51.824;6.306;2023-01-28T12:18:28;4.35;;;1.88;;
73454;SDS011;61690;51.824;6.306;2023-01-28T12:21:20;4.30;;;1.92;;
73454;SDS011;61690;51.824;6.306;2023-01-28T12:26:36;4.60;;;1.80;;
73454;SDS011;61690;51.824;6.306;2023-01-28T12:32:02;4.00;;;1.50;;
73454;SDS011;61690;51.824;6.306;2023-01-28T12:42:36;3.97;;;1.70;;
73454;SDS011;61690;51.824;6.306;2023-01-28T12:47:52;4.68;;;1.85;;
73454;SDS011;61690;51.824;6.306;2023-01-28T12:50:30;4.10;;;1.60;;
73454;SDS011;61690;51.824;6.306;2023-01-28T12:53:02;4.47;;;1.77;;
73454;SDS011;61690;51.824;6.306;2023-01-28T12:55:39;4.37;;;1.90;;
73454;SDS011;61690;51.824;6.306;2023-01-28T12:58:18;3.83;;;1.40;;
73454;SDS011;61690;51.824;6.306;2023-01-28T13:00:49;4.97;;;1.60;;
73454;SDS011;61690;51.824;6.306;2023-01-28T13:03:20;3.90;;;1.70;;
73454;SDS011;61690;51.824;6.306;2023-01-28T13:05:54;4.55;;;1.60;;
73454;SDS011;61690;51.824;6.306;2023-01-28T13:08:27;4.40;;;2.10;;
73454;SDS011;61690;51.824;6.306;2023-01-28T13:10:54;5.10;;;1.70;;
73454;SDS011;61690;51.824;6.306;2023-01-28T13:13:27;4.32;;;1.80;;
73454;SDS011;61690;51.824;6.306;2023-01-28T13:15:58;4.88;;;2.10;;
73454;SDS011;61690;51.824;6.306;2023-01-28T13:21:06;4.83;;;1.87;;
73454;SDS011;61690;51.824;6.306;2023-01-28T13:28:44;4.55;;;1.70;;
73454;SDS011;61690;51.824;6.306;2023-01-28T13:31:12;4.80;;;1.75;;
73454;SDS011;61690;51.824;6.306;2023-01-28T13:33:42;4.57;;;1.60;;
73454;SDS011;61690;51.824;6.306;2023-01-28T13:38:42;5.35;;;1.90;;
73454;SDS011;61690;51.824;6.306;2023-01-28T13:41:09;5.55;;;1.77;;
73454;SDS011;61690;51.824;6.306;2023-01-28T13:43:39;4.03;;;1.60;;
73454;SDS011;61690;51.824;6.306;2023-01-28T13:46:10;5.10;;;1.80;;
73454;SDS011;61690;51.824;6.306;2023-01-28T13:51:11;3.97;;;1.70;;
73454;SDS011;61690;51.824;6.306;2023-01-28T13:53:59;3.88;;;1.52;;
73454;SDS011;61690;51.824;6.306;2023-01-28T13:56:35;4.67;;;1.73;;
73454;SDS011;61690;51.824;6.306;2023-01-28T14:02:08;4.82;;;1.42;;
73454;SDS011;61690;51.824;6.306;2023-01-28T14:04:55;4.40;;;1.77;;
73454;SDS011;61690;51.824;6.306;2023-01-28T14:15:45;4.32;;;1.20;;
73454;SDS011;61690;51.824;6.306;2023-01-28T14:18:26;4.57;;;1.45;;
73454;SDS011;61690;51.824;6.306;2023-01-28T14:20:55;4.43;;;1.60;;
73454;SDS011;61690;51.824;6.306;2023-01-28T14:23:25;4.93;;;1.70;;
73454;SDS011;61690;51.824;6.306;2023-01-28T14:31:15;4.67;;;1.60;;
73454;SDS011;61690;51.824;6.306;2023-01-28T14:33:46;4.07;;;1.70;;
73454;SDS011;61690;51.824;6.306;2023-01-28T14:36:11;4.07;;;1.30;;
73454;SDS011;61690;51.824;6.306;2023-01-28T14:38:38;4.00;;;1.60;;
73454;SDS011;61690;51.824;6.306;2023-01-28T14:41:06;4.22;;;1.40;;
73454;SDS011;61690;51.824;6.306;2023-01-28T14:43:33;4.55;;;1.40;;
73454;SDS011;61690;51.824;6.306;2023-01-28T14:56:59;4.75;;;1.73;;
73454;SDS011;61690;51.824;6.306;2023-01-28T15:02:25;4.30;;;1.43;;
73454;SDS011;61690;51.824;6.306;2023-01-28T15:04:52;4.03;;;1.70;;
73454;SDS011;61690;51.824;6.306;2023-01-28T15:07:20;3.72;;;1.40;;
73454;SDS011;61690;51.824;6.306;2023-01-28T15:09:58;5.13;;;1.60;;
73454;SDS011;61690;51.824;6.306;2023-01-28T15:12:43;4.13;;;1.40;;
73454;SDS011;61690;51.824;6.306;2023-01-28T15:15:17;5.00;;;1.20;;
73454;SDS011;61690;51.824;6.306;2023-01-28T15:17:59;4.50;;;1.40;;
73454;SDS011;61690;51.824;6.306;2023-01-28T15:20:42;4.38;;;1.40;;
73454;SDS011;61690;51.824;6.306;2023-01-28T15:23:08;3.80;;;1.05;;
73454;SDS011;61690;51.824;6.306;2023-01-28T15:25:34;4.47;;;1.53;;
73454;SDS011;61690;51.824;6.306;2023-01-28T15:28:00;3.60;;;1.20;;
73454;SDS011;61690;51.824;6.306;2023-01-28T15:30:27;5.43;;;1.40;;
73454;SDS011;61690;51.824;6.306;2023-01-28T15:33:00;4.28;;;1.20;;
73454;SDS011;61690;51.824;6.306;2023-01-28T15:35:30;5.87;;;1.37;;
73454;SDS011;61690;51.824;6.306;2023-01-28T15:37:57;4.20;;;1.40;;
73454;SDS011;61690;51.824;6.306;2023-01-28T15:40:22;3.90;;;1.30;;
73454;SDS011;61690;51.824;6.306;2023-01-28T15:42:50;4.70;;;1.40;;
73454;SDS011;61690;51.824;6.306;2023-01-28T15:45:18;4.28;;;1.50;;
73454;SDS011;61690;51.824;6.306;2023-01-28T15:47:46;4.90;;;1.40;;
73454;SDS011;61690;51.824;6.306;2023-01-28T15:50:16;5.25;;;1.50;;
73454;SDS011;61690;51.824;6.306;2023-01-28T15:52:47;4.50;;;1.45;;
73454;SDS011;61690;51.824;6.306;2023-01-28T15:55:47;6.47;;;1.40;;
73454;SDS011;61690;51.824;6.306;2023-01-28T15:58:08;4.72;;;1.40;;
73454;SDS011;61690;51.824;6.306;2023-01-28T16:03:35;4.68;;;1.35;;
73454;SDS011;61690;51.824;6.306;2023-01-28T16:06:07;4.00;;;1.45;;
73454;SDS011;61690;51.824;6.306;2023-01-28T16:08:38;4.63;;;1.53;;
73454;SDS011;61690;51.824;6.306;2023-01-28T16:11:09;4.63;;;1.38;;
73454;SDS011;61690;51.824;6.306;2023-01-28T16:13:35;4.53;;;1.35;;
73454;SDS011;61690;51.824;6.306;2023-01-28T16:16:07;4.10;;;1.30;;
73454;SDS011;61690;51.824;6.306;2023-01-28T16:18:46;5.10;;;1.50;;
73454;SDS011;61690;51.824;6.306;2023-01-28T16:21:27;3.90;;;1.27;;
73454;SDS011;61690;51.824;6.306;2023-01-28T16:27:00;3.65;;;1.30;;
73454;SDS011;61690;51.824;6.306;2023-01-28T16:29:27;4.13;;;1.40;;
73454;SDS011;61690;51.824;6.306;2023-01-28T16:31:53;4.37;;;1.63;;
73454;SDS011;61690;51.824;6.306;2023-01-28T16:34:19;4.35;;;1.40;;
73454;SDS011;61690;51.824;6.306;2023-01-28T16:36:44;3.67;;;1.30;;
73454;SDS011;61690;51.824;6.306;2023-01-28T16:39:10;4.57;;;1.53;;
73454;SDS011;61690;51.824;6.306;2023-01-28T16:41:37;4.33;;;1.40;;
73454;SDS011;61690;51.824;6.306;2023-01-28T16:44:05;4.03;;;1.30;;
73454;SDS011;61690;51.824;6.306;2023-01-28T16:46:31;4.18;;;1.50;;
73454;SDS011;61690;51.824;6.306;2023-01-28T16:48:57;3.75;;;1.30;;
73454;SDS011;61690;51.824;6.306;2023-01-28T16:51:23;4.13;;;1.48;;
73454;SDS011;61690;51.824;6.306;2023-01-28T16:53:49;4.87;;;1.60;;
73454;SDS011;61690;51.824;6.306;2023-01-28T16:56:15;8.15;;;1.48;;
73454;SDS011;61690;51.824;6.306;2023-01-28T16:58:43;5.55;;;1.30;;
73454;SDS011;61690;51.824;6.306;2023-01-28T17:01:09;7.33;;;1.50;;
73454;SDS011;61690;51.824;6.306;2023-01-28T17:03:36;4.13;;;1.60;;
73454;SDS011;61690;51.824;6.306;2023-01-28T17:06:01;6.13;;;1.23;;
73454;SDS011;61690;51.824;6.306;2023-01-28T17:08:27;3.97;;;1.30;;
73454;SDS011;61690;51.824;6.306;2023-01-28T17:10:52;8.07;;;1.63;;
73454;SDS011;61690;51.824;6.306;2023-01-28T17:13:19;4.70;;;1.50;;